DEHRS EDWR-EDWJ

Flight info

Callsign DEHRS
Flight time 0h 6m
Altitude 1500
Route EDWJ
Aircraft C172/L-SFG/C

Departure

Time 2026-05-05 21:37
Airport Borkum Airport (EDWR)

Arrival

Time 2026-05-05 21:44
Airport Juist Airport (EDWJ)
Time Latitude Longitude Altitude Speed Heading
2026-05-05 21:30 53.59793 6.70269 7 ft 0 kts 333°
2026-05-05 21:33 53.59794 6.70269 7 ft 2 kts 337°
2026-05-05 21:33 53.59807 6.70304 7 ft 3 kts 79°
2026-05-05 21:33 53.59805 6.70318 7 ft 0 kts 126°
2026-05-05 21:34 53.59794 6.70333 7 ft 9 kts 151°
2026-05-05 21:34 53.59735 6.70377 8 ft 8 kts 214°
2026-05-05 21:34 53.59696 6.70339 7 ft 5 kts 181°
2026-05-05 21:35 53.59679 6.70370 8 ft 6 kts 116°
2026-05-05 21:35 53.59654 6.70449 9 ft 8 kts 123°
2026-05-05 21:35 53.59615 6.70563 9 ft 11 kts 117°
2026-05-05 21:35 53.59603 6.70630 11 ft 4 kts 75°
2026-05-05 21:36 53.59683 6.70790 9 ft 41 kts 48°
2026-05-05 21:36 53.59944 6.71293 103 ft 64 kts 59°
2026-05-05 21:36 53.60116 6.72198 80 ft 92 kts 73°
2026-05-05 21:36 53.60345 6.73235 100 ft 105 kts 71°
2026-05-05 21:37 53.60594 6.74404 206 ft 104 kts 67°
2026-05-05 21:37 53.60872 6.75554 308 ft 100 kts 67°
2026-05-05 21:37 53.61113 6.76646 421 ft 102 kts 69°
2026-05-05 21:37 53.61366 6.77723 630 ft 100 kts 65°
2026-05-05 21:38 53.61620 6.78800 807 ft 98 kts 66°
2026-05-05 21:38 53.61883 6.79898 918 ft 104 kts 66°
2026-05-05 21:38 53.62158 6.81048 977 ft 109 kts 64°
2026-05-05 21:38 53.62446 6.82244 979 ft 112 kts 66°
2026-05-05 21:39 53.62734 6.83446 982 ft 110 kts 66°
2026-05-05 21:39 53.63021 6.84643 979 ft 112 kts 66°
2026-05-05 21:39 53.63316 6.85874 985 ft 115 kts 66°
2026-05-05 21:39 53.63612 6.87111 984 ft 117 kts 66°
2026-05-05 21:40 53.63912 6.88362 978 ft 114 kts 66°
2026-05-05 21:40 53.64209 6.89601 981 ft 113 kts 66°
2026-05-05 21:40 53.64500 6.90816 977 ft 111 kts 66°
2026-05-05 21:40 53.64786 6.92014 978 ft 109 kts 66°
2026-05-05 21:41 53.65068 6.93198 974 ft 109 kts 67°
2026-05-05 21:41 53.65351 6.94379 974 ft 108 kts 65°
2026-05-05 21:41 53.65630 6.95547 972 ft 107 kts 66°
2026-05-05 21:41 53.65907 6.96710 952 ft 108 kts 66°
2026-05-05 21:42 53.66243 6.97838 749 ft 109 kts 57°
2026-05-05 21:42 53.66654 6.98875 584 ft 106 kts 54°
2026-05-05 21:42 53.67138 6.99923 383 ft 112 kts 53°
2026-05-05 21:42 53.67426 7.01058 394 ft 100 kts 74°
2026-05-05 21:43 53.67583 7.02157 374 ft 95 kts 72°
2026-05-05 21:43 53.67766 7.03229 303 ft 91 kts 73°
2026-05-05 21:43 53.67916 7.04230 173 ft 78 kts 75°
2026-05-05 21:43 53.68033 7.05008 37 ft 61 kts 77°
2026-05-05 21:44 53.68109 7.05551 9 ft 27 kts 77°
2026-05-05 21:44 53.68139 7.05764 7 ft 14 kts 78°
2026-05-05 21:44 53.68168 7.05946 6 ft 17 kts 75°
2026-05-05 21:44 53.68195 7.06127 8 ft 13 kts 58°
2026-05-05 21:45 53.68228 7.06106 9 ft 12 kts 258°
2026-05-05 21:45 53.68190 7.05838 6 ft 26 kts 257°
2026-05-05 21:45 53.68157 7.05601 9 ft 11 kts 285°
2026-05-05 21:45 53.68162 7.05562 10 ft 0 kts 270°